createdAt,value
2022-09-23T00:02:24.149Z,71.25
2022-09-23T00:06:29.871Z,71.17
2022-09-23T00:10:33.486Z,71.24
2022-09-23T00:14:38.490Z,71.24
2022-09-23T00:18:42.757Z,71.48
2022-09-23T00:22:47.668Z,71.18
2022-09-23T00:26:51.641Z,71.77
2022-09-23T00:30:54.759Z,71.03
2022-09-23T00:34:58.295Z,71.46
2022-09-23T00:39:04.563Z,72.08
2022-09-23T00:43:08.175Z,72.05
2022-09-23T00:47:16.035Z,72.72
2022-09-23T00:51:25.174Z,73.00
2022-09-23T00:55:33.547Z,73.04
2022-09-23T00:59:38.018Z,72.31
2022-09-23T01:03:43.148Z,72.17
2022-09-23T01:07:46.919Z,71.58
2022-09-23T01:12:01.300Z,71.46
2022-09-23T01:16:11.223Z,71.14
2022-09-23T01:20:44.886Z,71.05
2022-09-23T01:25:09.036Z,70.66
2022-09-23T01:29:50.486Z,71.14
2022-09-23T01:34:02.223Z,71.92
2022-09-23T01:38:18.608Z,72.15
2022-09-23T01:42:32.795Z,72.55
2022-09-23T01:46:42.926Z,73.35
2022-09-23T01:50:59.218Z,72.64
2022-09-23T01:55:08.803Z,72.98
2022-09-23T01:59:16.812Z,72.88
2022-09-23T02:03:27.522Z,72.22
2022-09-23T02:07:40.729Z,72.26
2022-09-23T02:11:48.203Z,72.28
2022-09-23T02:15:54.779Z,72.23
2022-09-23T02:20:03.885Z,72.77
2022-09-23T02:24:13.059Z,72.61
2022-09-23T02:28:24.775Z,72.11
2022-09-23T02:32:33.434Z,71.35
2022-09-23T02:36:46.696Z,71.34
2022-09-23T02:40:58.777Z,71.62
2022-09-23T02:45:02.489Z,71.75
2022-09-23T02:49:11.538Z,71.20
2022-09-23T02:53:16.278Z,70.44
2022-09-23T02:57:21.713Z,70.40
2022-09-23T03:01:39.772Z,70.47
2022-09-23T03:05:48.822Z,70.70
2022-09-23T03:09:58.032Z,70.95
2022-09-23T03:14:18.144Z,71.54
2022-09-23T03:18:28.853Z,71.96
2022-09-23T03:22:36.373Z,71.73
2022-09-23T03:26:43.952Z,71.36
2022-09-23T03:30:51.254Z,71.26
2022-09-23T03:34:59.414Z,71.27
2022-09-23T03:39:07.365Z,70.99
2022-09-23T03:43:12.371Z,71.01
2022-09-23T03:47:18.671Z,70.95
2022-09-23T03:51:24.450Z,70.89
2022-09-23T03:55:27.461Z,71.08
2022-09-23T03:59:31.901Z,71.18
2022-09-23T04:03:36.429Z,71.21
2022-09-23T04:07:40.302Z,71.37
2022-09-23T04:11:43.423Z,70.96
2022-09-23T04:15:47.047Z,71.28
2022-09-23T04:19:51.467Z,71.34
2022-09-23T04:23:54.910Z,71.47
2022-09-23T04:27:58.153Z,71.29
2022-09-23T04:32:01.654Z,71.44
2022-09-23T04:36:06.300Z,71.93
2022-09-23T04:40:11.158Z,72.24
2022-09-23T04:44:16.616Z,72.23
2022-09-23T04:48:20.489Z,71.91
2022-09-23T04:52:24.891Z,72.12
2022-09-23T04:56:33.190Z,71.95
2022-09-23T05:00:36.524Z,71.05
2022-09-23T05:04:41.287Z,71.13
2022-09-23T05:08:50.190Z,71.20
2022-09-23T05:12:57.002Z,71.23
2022-09-23T05:17:00.483Z,71.20
2022-09-23T05:21:04.487Z,71.43
2022-09-23T05:25:09.750Z,71.17
2022-09-23T05:29:13.394Z,71.27
2022-09-23T05:33:16.363Z,70.95
2022-09-23T05:37:19.799Z,71.54
2022-09-23T05:41:25.360Z,71.85
2022-09-23T05:45:28.989Z,71.54
2022-09-23T05:49:55.319Z,70.92
2022-09-23T05:53:58.860Z,70.18
2022-09-23T05:58:03.804Z,70.27
2022-09-23T06:02:06.816Z,70.04
2022-09-23T06:06:15.018Z,69.60
2022-09-23T06:10:18.139Z,70.01
2022-09-23T06:14:23.009Z,69.88
2022-09-23T06:18:26.135Z,69.48
2022-09-23T06:22:29.843Z,68.89
2022-09-23T06:26:35.414Z,68.74
2022-09-23T06:30:40.886Z,68.61
2022-09-23T06:34:51.736Z,68.48
2022-09-23T06:38:56.016Z,67.94
2022-09-23T06:43:00.100Z,67.10
2022-09-23T06:47:04.905Z,67.24
2022-09-23T06:51:08.951Z,66.68
2022-09-23T06:55:12.025Z,66.10
2022-09-23T06:59:17.683Z,67.57
2022-09-23T07:03:22.856Z,66.77
2022-09-23T07:07:27.218Z,65.70
2022-09-23T07:11:30.304Z,65.55
2022-09-23T07:15:34.352Z,64.93
2022-09-23T07:19:39.374Z,64.09
2022-09-23T07:23:42.853Z,63.74
2022-09-23T07:27:48.931Z,62.79
2022-09-23T07:31:53.336Z,61.52
2022-09-23T07:35:59.367Z,63.19
2022-09-23T07:40:02.841Z,62.60
2022-09-23T07:44:06.962Z,62.19
2022-09-23T07:48:09.985Z,60.64
2022-09-23T07:52:14.342Z,59.54
2022-09-23T07:56:19.673Z,58.74
2022-09-23T08:00:23.116Z,58.69
2022-09-23T08:04:28.404Z,60.72
2022-09-23T08:08:33.542Z,59.07
2022-09-23T08:12:36.680Z,56.63
2022-09-23T08:16:39.966Z,57.29
2022-09-23T08:20:47.420Z,54.94
2022-09-23T08:24:55.189Z,54.04
2022-09-23T08:28:59.651Z,54.66
2022-09-23T08:33:03.100Z,52.52
2022-09-23T08:37:10.863Z,52.50
2022-09-23T08:41:28.847Z,54.66
2022-09-23T08:45:32.220Z,47.68
2022-09-23T08:49:41.417Z,50.29
2022-09-23T08:53:45.672Z,47.70
2022-09-23T08:58:24.441Z,49.20
2022-09-23T09:02:29.655Z,46.30
2022-09-23T09:06:52.489Z,50.01
2022-09-23T09:10:58.806Z,49.04
2022-09-23T09:15:08.522Z,48.85
2022-09-23T09:19:19.110Z,48.22
2022-09-23T09:23:25.158Z,47.47
2022-09-23T09:27:28.713Z,46.54
2022-09-23T09:31:39.524Z,49.81
2022-09-23T09:36:09.497Z,50.14
2022-09-23T09:40:14.218Z,47.30
2022-09-23T09:44:27.359Z,48.30
2022-09-23T09:48:39.421Z,46.80
2022-09-23T09:52:43.580Z,45.45
2022-09-23T10:00:55.580Z,45.60
2022-09-23T10:05:03.472Z,46.04
2022-09-23T10:09:19.767Z,48.03
2022-09-23T10:13:24.808Z,45.03
2022-09-23T10:17:34.155Z,45.36
2022-09-23T10:21:39.940Z,42.57
2022-09-23T10:25:44.408Z,44.39
2022-09-23T10:29:51.905Z,44.79
2022-09-23T10:33:57.928Z,43.32
2022-09-23T10:38:02.768Z,43.57
2022-09-23T10:42:45.141Z,45.15
2022-09-23T10:46:57.812Z,43.39
2022-09-23T10:51:01.037Z,48.02
2022-09-23T10:55:15.999Z,43.50
2022-09-23T10:59:45.075Z,42.01
2022-09-23T11:04:12.309Z,38.97
2022-09-23T11:08:31.728Z,43.45
2022-09-23T11:12:47.863Z,39.90
2022-09-23T11:17:15.216Z,40.26
2022-09-23T11:21:40.351Z,41.89
2022-09-23T11:25:52.587Z,39.21
2022-09-23T11:30:05.728Z,39.91
2022-09-23T11:34:26.630Z,39.24
2022-09-23T11:38:36.683Z,39.05
2022-09-23T11:42:47.460Z,37.71
2022-09-23T11:46:58.005Z,38.67
2022-09-23T11:51:07.041Z,37.49
2022-09-23T11:55:22.802Z,38.28
2022-09-23T11:59:40.548Z,38.82
2022-09-23T12:03:53.871Z,37.46
2022-09-23T12:08:04.439Z,36.16
2022-09-23T12:12:15.244Z,37.34
2022-09-23T12:16:40.153Z,35.94
2022-09-23T12:20:56.945Z,34.30
2022-09-23T12:25:10.980Z,34.22
2022-09-23T12:29:16.084Z,34.51
2022-09-23T12:33:25.210Z,35.79
2022-09-23T12:37:36.288Z,38.06
2022-09-23T12:41:42.515Z,36.44
2022-09-23T12:45:46.489Z,37.53
2022-09-23T12:49:50.965Z,36.95
2022-09-23T12:53:58.974Z,36.39
2022-09-23T12:58:02.377Z,36.96
2022-09-23T13:02:28.319Z,38.90
2022-09-23T13:06:41.457Z,37.42
2022-09-23T13:10:50.319Z,36.42
2022-09-23T13:14:56.465Z,34.63
2022-09-23T13:19:00.877Z,34.46
2022-09-23T13:23:29.659Z,36.84
2022-09-23T13:27:35.301Z,35.52
2022-09-23T13:31:39.521Z,37.00
2022-09-23T13:35:47.641Z,34.25
2022-09-23T13:39:51.672Z,35.86
2022-09-23T13:43:58.785Z,36.41
2022-09-23T13:48:06.199Z,36.16
2022-09-23T13:52:25.545Z,37.58
2022-09-23T13:56:30.629Z,34.61
2022-09-23T14:00:39.418Z,34.93
2022-09-23T14:04:43.018Z,35.36
2022-09-23T14:08:48.330Z,35.22
2022-09-23T14:12:53.914Z,34.83
2022-09-23T14:17:00.615Z,34.30
2022-09-23T14:21:04.398Z,34.51
2022-09-23T14:25:15.614Z,35.97
2022-09-23T14:29:21.185Z,34.58
2022-09-23T14:33:28.561Z,34.21
2022-09-23T14:37:52.996Z,35.05
2022-09-23T14:41:57.189Z,34.57
2022-09-23T14:46:01.219Z,35.16
2022-09-23T14:50:24.386Z,35.18
2022-09-23T14:54:38.346Z,37.45
2022-09-23T14:58:54.197Z,37.72
2022-09-23T15:03:02.829Z,36.73
2022-09-23T15:07:17.386Z,36.76
2022-09-23T15:11:22.657Z,37.43
2022-09-23T15:15:30.097Z,36.50
2022-09-23T15:19:35.912Z,36.59
2022-09-23T15:23:47.100Z,39.43
2022-09-23T15:28:06.287Z,39.94
2022-09-23T15:32:09.375Z,39.58
2022-09-23T15:40:32.830Z,40.99
2022-09-23T15:44:36.472Z,41.52
2022-09-23T15:48:44.187Z,40.83
2022-09-23T15:52:47.210Z,42.08
2022-09-23T15:56:52.281Z,42.44
2022-09-23T16:00:58.129Z,43.03
2022-09-23T16:05:03.506Z,43.53
2022-09-23T16:09:07.084Z,43.98
2022-09-23T16:13:15.803Z,44.72
2022-09-23T16:17:19.430Z,45.15
2022-09-23T16:21:25.770Z,45.25
2022-09-23T16:25:32.526Z,44.17
2022-09-23T16:29:37.972Z,46.08
2022-09-23T16:33:41.031Z,47.11
2022-09-23T16:37:47.713Z,47.00
2022-09-23T16:41:50.734Z,47.17
2022-09-23T16:45:55.867Z,47.46
2022-09-23T16:49:58.923Z,48.00
2022-09-23T16:54:02.560Z,48.48
2022-09-23T16:58:06.028Z,51.12
2022-09-23T17:02:30.563Z,50.78
2022-09-23T17:06:34.219Z,51.24
2022-09-23T17:10:37.736Z,51.43
2022-09-23T17:14:40.764Z,52.04
2022-09-23T17:18:45.173Z,53.23
2022-09-23T17:22:48.421Z,53.48
2022-09-23T17:26:53.228Z,54.82
2022-09-23T17:30:59.594Z,55.10
2022-09-23T17:35:04.830Z,55.12
2022-09-23T17:39:08.507Z,55.94
2022-09-23T17:43:11.600Z,56.14
2022-09-23T17:47:15.052Z,56.64
2022-09-23T17:51:20.980Z,57.49
2022-09-23T17:55:23.992Z,56.78
2022-09-23T17:59:27.984Z,56.91
2022-09-23T18:03:32.597Z,57.60
2022-09-23T18:07:37.777Z,58.06
2022-09-23T18:11:43.147Z,58.23
2022-09-23T18:15:46.189Z,58.36
2022-09-23T18:19:49.837Z,58.72
2022-09-23T18:23:59.789Z,58.88
2022-09-23T18:28:09.710Z,59.19
2022-09-23T18:32:14.315Z,59.02
2022-09-23T18:36:18.006Z,59.72
2022-09-23T18:40:22.545Z,60.31
2022-09-23T18:44:26.938Z,60.28
2022-09-23T18:48:49.691Z,59.93
2022-09-23T18:52:53.229Z,60.51
2022-09-23T18:56:59.772Z,60.29
2022-09-23T19:01:08.323Z,60.09
2022-09-23T19:05:11.544Z,60.53
2022-09-23T19:09:16.431Z,60.57
2022-09-23T19:13:22.057Z,60.99
2022-09-23T19:17:25.573Z,61.13
2022-09-23T19:21:29.887Z,61.05
2022-09-23T19:25:32.927Z,60.88
2022-09-23T19:29:38.484Z,61.53
2022-09-23T19:33:46.206Z,61.43
2022-09-23T19:37:52.643Z,61.22
2022-09-23T19:41:57.243Z,61.65
2022-09-23T19:46:02.327Z,61.46
2022-09-23T19:50:07.359Z,61.54
2022-09-23T19:54:11.067Z,61.60
2022-09-23T19:58:14.602Z,61.36
2022-09-23T20:02:21.103Z,61.50
2022-09-23T20:06:25.071Z,61.67
2022-09-23T20:10:28.927Z,61.80
2022-09-23T20:14:32.114Z,61.72
2022-09-23T20:18:37.729Z,61.50
2022-09-23T20:22:41.437Z,61.52
2022-09-23T20:27:06.979Z,61.66
2022-09-23T20:31:10.595Z,61.85
2022-09-23T20:35:16.883Z,61.80
2022-09-23T20:39:20.478Z,61.91
2022-09-23T20:43:24.592Z,62.23
2022-09-23T20:47:28.019Z,62.28
2022-09-23T20:51:34.236Z,62.06
2022-09-23T20:55:37.789Z,62.17
2022-09-23T20:59:41.528Z,62.80
2022-09-23T21:03:46.436Z,61.93
2022-09-23T21:07:51.033Z,62.24
2022-09-23T21:11:54.234Z,62.13
2022-09-23T21:15:58.904Z,62.29
2022-09-23T21:20:02.113Z,62.55
2022-09-23T21:24:39.740Z,62.56
2022-09-23T21:28:33.931Z,62.46
2022-09-23T21:32:37.623Z,62.81
2022-09-23T21:40:59.258Z,63.02
2022-09-23T21:45:07.297Z,63.27
2022-09-23T21:49:10.769Z,63.98
2022-09-23T21:53:14.790Z,64.53
2022-09-23T21:57:19.262Z,65.03
2022-09-23T22:01:24.927Z,65.46
2022-09-23T22:05:28.477Z,65.68
2022-09-23T22:09:31.739Z,65.61
2022-09-23T22:13:36.646Z,65.69
2022-09-23T22:17:40.059Z,65.78
2022-09-23T22:21:46.224Z,66.12
2022-09-23T22:25:49.655Z,66.49
2022-09-23T22:30:11.969Z,66.97
2022-09-23T22:34:37.647Z,66.88
2022-09-23T22:38:39.131Z,66.54
2022-09-23T22:42:42.917Z,66.47
2022-09-23T22:46:48.338Z,66.41
2022-09-23T22:50:51.576Z,66.68
2022-09-23T22:54:55.047Z,66.76
2022-09-23T22:59:01.374Z,67.46
2022-09-23T23:03:07.337Z,66.91
2022-09-23T23:07:10.929Z,67.11
2022-09-23T23:11:14.447Z,67.43
2022-09-23T23:15:17.654Z,67.82
2022-09-23T23:19:22.810Z,67.96
2022-09-23T23:23:26.217Z,68.16
2022-09-23T23:27:29.154Z,68.37
2022-09-23T23:31:33.922Z,68.08
2022-09-23T23:35:38.531Z,67.93
2022-09-23T23:39:41.528Z,68.56
2022-09-23T23:43:46.804Z,68.54
2022-09-23T23:47:50.216Z,68.32
2022-09-23T23:51:54.537Z,68.55
2022-09-23T23:55:58.759Z,68.09
